Time,TemperatureF,DewpointF,PressureIn,WindDirection,WindDirectionDegrees,WindSpeedMPH,WindSpeedGustMPH,Humidity,HourlyPrecipIn,Conditions,Clouds,dailyrainin,SoftwareType,DateUTC
2013-11-18 00:04:00,47.2,42.0,30.08,SSW,202,0.0,-999.0,83,-99.99,,,0.00,weatherlink.com 1.10,2013-11-18 08:04:00,
2013-11-18 00:19:00,47.0,42.0,30.07,SSW,202,0.0,-999.0,83,-99.99,,,0.00,weatherlink.com 1.10,2013-11-18 08:19:00,
2013-11-18 00:34:00,46.8,42.0,30.07,SSW,202,0.0,-999.0,83,-99.99,,,0.00,weatherlink.com 1.10,2013-11-18 08:34:00,
2013-11-18 00:49:00,46.0,41.0,30.07,SSW,202,0.0,-999.0,81,-99.99,,,0.00,weatherlink.com 1.10,2013-11-18 08:49:00,
2013-11-18 01:04:00,45.3,41.0,30.07,SSW,202,0.0,-999.0,85,-99.99,,,0.00,weatherlink.com 1.10,2013-11-18 09:04:00,
2013-11-18 01:19:00,45.5,41.0,30.07,SSW,202,0.0,-999.0,85,-99.99,,,0.00,weatherlink.com 1.10,2013-11-18 09:19:00,
2013-11-18 01:34:00,45.7,42.0,30.07,SSW,202,0.0,-999.0,85,-99.99,,,0.00,weatherlink.com 1.10,2013-11-18 09:34:00,
2013-11-18 01:49:00,45.7,41.0,30.08,SSW,202,0.0,-999.0,84,-99.99,,,0.00,weatherlink.com 1.10,2013-11-18 09:49:00,
2013-11-18 02:04:00,45.6,41.0,30.09,SSW,202,0.0,-999.0,84,-99.99,,,0.00,weatherlink.com 1.10,2013-11-18 10:04:00,
2013-11-18 02:19:00,44.7,40.0,30.09,SSW,202,0.0,-999.0,83,-99.99,,,0.00,weatherlink.com 1.10,2013-11-18 10:19:00,
2013-11-18 02:34:00,45.0,41.0,30.09,SSW,202,0.0,-999.0,85,-99.99,,,0.00,weatherlink.com 1.10,2013-11-18 10:34:00,
2013-11-18 02:49:00,44.9,40.0,30.09,SSW,202,0.0,-999.0,83,-99.99,,,0.00,weatherlink.com 1.10,2013-11-18 10:49:00,
2013-11-18 03:04:00,45.0,41.0,30.09,SSW,202,0.0,-999.0,84,-99.99,,,0.00,weatherlink.com 1.10,2013-11-18 11:04:00,
2013-11-18 03:19:00,45.3,41.0,30.09,SSW,202,0.0,-999.0,84,-99.99,,,0.00,weatherlink.com 1.10,2013-11-18 11:19:00,
2013-11-18 03:35:00,46.6,41.0,30.09,SSW,202,0.0,-999.0,82,-99.99,,,0.00,weatherlink.com 1.10,2013-11-18 11:35:00,
2013-11-18 03:50:00,47.2,41.0,30.09,SSW,202,0.0,-999.0,80,-99.99,,,0.00,weatherlink.com 1.10,2013-11-18 11:50:00,
2013-11-18 04:05:00,47.3,41.0,30.09,SSW,202,0.0,-999.0,79,-99.99,,,0.00,weatherlink.com 1.10,2013-11-18 12:05:00,
2013-11-18 04:20:00,47.5,41.0,30.09,SSW,202,0.0,-999.0,79,-99.99,,,0.00,weatherlink.com 1.10,2013-11-18 12:20:00,
2013-11-18 04:35:00,47.2,41.0,30.09,SSW,202,0.0,-999.0,79,-99.99,,,0.00,weatherlink.com 1.10,2013-11-18 12:35:00,
2013-11-18 04:50:00,46.8,41.0,30.09,SSW,202,0.0,-999.0,80,-99.99,,,0.00,weatherlink.com 1.10,2013-11-18 12:50:00,
2013-11-18 05:05:00,46.6,41.0,30.10,SSW,202,0.0,-999.0,80,-99.99,,,0.00,weatherlink.com 1.10,2013-11-18 13:05:00,
2013-11-18 05:20:00,46.4,41.0,30.10,SSW,202,0.0,-999.0,80,-99.99,,,0.00,weatherlink.com 1.10,2013-11-18 13:20:00,
2013-11-18 05:35:00,46.3,41.0,30.10,SSW,202,0.0,-999.0,81,-99.99,,,0.00,weatherlink.com 1.10,2013-11-18 13:35:00,
2013-11-18 05:50:00,47.3,41.0,30.10,SSW,200,0.0,-999.0,79,-99.99,,,0.00,weatherlink.com 1.10,2013-11-18 13:50:00,
2013-11-18 06:05:00,48.4,41.0,30.10,SSW,199,0.0,-999.0,76,-99.99,,,0.00,weatherlink.com 1.10,2013-11-18 14:05:00,
2013-11-18 06:20:00,48.6,41.0,30.11,SSW,199,0.0,-999.0,75,-99.99,,,0.00,weatherlink.com 1.10,2013-11-18 14:20:00,
2013-11-18 06:35:00,48.5,41.0,30.11,SSW,199,0.0,-999.0,75,-99.99,,,0.00,weatherlink.com 1.10,2013-11-18 14:35:00,
2013-11-18 06:50:00,48.6,41.0,30.11,SSW,199,0.0,-999.0,75,-99.99,,,0.00,weatherlink.com 1.10,2013-11-18 14:50:00,
2013-11-18 07:05:00,48.5,41.0,30.11,SSW,199,0.0,-999.0,76,-99.99,,,0.00,weatherlink.com 1.10,2013-11-18 15:05:00,
2013-11-18 07:20:00,47.7,41.0,30.12,SSW,199,0.0,-999.0,78,-99.99,,,0.00,weatherlink.com 1.10,2013-11-18 15:20:00,
2013-11-18 07:35:00,47.2,41.0,30.12,SSW,199,0.0,-999.0,79,-99.99,,,0.00,weatherlink.com 1.10,2013-11-18 15:35:00,
2013-11-18 07:50:00,47.7,42.0,30.13,SSW,199,0.0,-999.0,80,-99.99,,,0.00,weatherlink.com 1.10,2013-11-18 15:50:00,
2013-11-18 08:05:00,48.9,43.0,30.13,SSW,199,0.0,-999.0,79,-99.99,,,0.00,weatherlink.com 1.10,2013-11-18 16:05:00,
2013-11-18 08:21:00,49.6,42.0,30.14,SSW,199,0.0,-999.0,76,-99.99,,,0.00,weatherlink.com 1.10,2013-11-18 16:21:00,
2013-11-18 08:35:00,49.8,42.0,30.14,SSW,199,0.0,-999.0,75,-99.99,,,0.00,weatherlink.com 1.10,2013-11-18 16:35:00,
2013-11-18 08:50:00,49.8,42.0,30.14,SSW,199,0.0,-999.0,74,-99.99,,,0.00,weatherlink.com 1.10,2013-11-18 16:50:00,
2013-11-18 09:05:00,50.6,43.0,30.14,SSW,199,0.0,-999.0,74,-99.99,,,0.00,weatherlink.com 1.10,2013-11-18 17:05:00,
2013-11-18 09:20:00,52.1,43.0,30.15,SSW,199,0.0,-999.0,72,-99.99,,,0.00,weatherlink.com 1.10,2013-11-18 17:20:00,
2013-11-18 09:35:00,54.2,44.0,30.14,SSW,199,0.0,-999.0,68,-99.99,,,0.00,weatherlink.com 1.10,2013-11-18 17:35:00,
2013-11-18 09:50:00,56.0,44.0,30.14,SSW,199,0.0,-999.0,65,-99.99,,,0.00,weatherlink.com 1.10,2013-11-18 17:50:00,
2013-11-18 10:05:00,57.7,44.0,30.12,SSW,194,0.0,-999.0,61,-99.99,,,0.00,weatherlink.com 1.10,2013-11-18 18:05:00,
2013-11-18 10:20:00,58.6,44.0,30.13,South,171,0.0,-999.0,59,-99.99,,,0.00,weatherlink.com 1.10,2013-11-18 18:20:00,
2013-11-18 10:35:00,60.3,45.0,30.12,South,171,1.0,-999.0,57,-99.99,,,0.00,weatherlink.com 1.10,2013-11-18 18:35:00,
2013-11-18 10:50:00,62.4,44.0,30.11,SSE,153,0.0,-999.0,52,-99.99,,,0.00,weatherlink.com 1.10,2013-11-18 18:50:00,
2013-11-18 11:05:00,63.9,45.0,30.11,SE,144,0.0,-999.0,50,-99.99,,,0.00,weatherlink.com 1.10,2013-11-18 19:05:00,
2013-11-18 11:20:00,64.8,45.0,30.11,SE,144,0.0,-999.0,49,-99.99,,,0.00,weatherlink.com 1.10,2013-11-18 19:20:00,
2013-11-18 11:35:00,64.9,45.0,30.11,SE,144,0.0,-999.0,49,-99.99,,,0.00,weatherlink.com 1.10,2013-11-18 19:35:00,
2013-11-18 11:50:00,64.7,45.0,30.10,SSE,147,0.0,-999.0,50,-99.99,,,0.00,weatherlink.com 1.10,2013-11-18 19:50:00,
2013-11-18 12:05:00,64.7,45.0,30.10,SSE,149,0.0,-999.0,50,-99.99,,,0.00,weatherlink.com 1.10,2013-11-18 20:05:00,
2013-11-18 12:20:00,63.8,45.0,30.09,SSE,154,0.0,-999.0,51,-99.99,,,0.00,weatherlink.com 1.10,2013-11-18 20:20:00,
2013-11-18 12:35:00,63.0,45.0,30.08,South,173,7.0,-999.0,53,-99.99,,,0.00,weatherlink.com 1.10,2013-11-18 20:35:00,
2013-11-18 12:50:00,64.0,46.0,30.08,South,188,0.0,-999.0,53,-99.99,,,0.00,weatherlink.com 1.10,2013-11-18 20:50:00,
2013-11-18 13:05:00,65.4,47.0,30.07,SSW,202,4.0,-999.0,51,-99.99,,,0.00,weatherlink.com 1.10,2013-11-18 21:05:00,
2013-11-18 13:20:00,64.7,46.0,30.07,SSW,204,0.0,-999.0,52,-99.99,,,0.00,weatherlink.com 1.10,2013-11-18 21:20:00,
2013-11-18 13:35:00,63.6,46.0,30.07,SSW,206,0.0,-999.0,54,-99.99,,,0.00,weatherlink.com 1.10,2013-11-18 21:35:00,
2013-11-18 13:50:00,63.6,47.0,30.07,SSW,206,0.0,-999.0,55,-99.99,,,0.00,weatherlink.com 1.10,2013-11-18 21:50:00,
2013-11-18 14:05:00,63.2,47.0,30.06,SSW,206,0.0,-999.0,56,-99.99,,,0.00,weatherlink.com 1.10,2013-11-18 22:05:00,
2013-11-18 14:20:00,62.6,47.0,30.06,SSW,206,0.0,-999.0,57,-99.99,,,0.00,weatherlink.com 1.10,2013-11-18 22:20:00,
2013-11-18 14:35:00,62.3,47.0,30.06,SSW,206,2.0,-999.0,58,-99.99,,,0.00,weatherlink.com 1.10,2013-11-18 22:35:00,
2013-11-18 14:50:00,62.0,47.0,30.07,SSW,206,1.0,-999.0,58,-99.99,,,0.00,weatherlink.com 1.10,2013-11-18 22:50:00,
2013-11-18 15:05:00,61.7,47.0,30.07,SSW,206,0.0,-999.0,59,-99.99,,,0.00,weatherlink.com 1.10,2013-11-18 23:05:00,
2013-11-18 15:20:00,61.2,47.0,30.07,SSW,207,0.0,-999.0,59,-99.99,,,0.00,weatherlink.com 1.10,2013-11-18 23:20:00,
2013-11-18 15:35:00,60.9,47.0,30.07,SSW,207,0.0,-999.0,60,-99.99,,,0.00,weatherlink.com 1.10,2013-11-18 23:35:00,
2013-11-18 15:50:00,60.8,46.0,30.06,SSW,207,0.0,-999.0,59,-99.99,,,0.00,weatherlink.com 1.10,2013-11-18 23:50:00,
2013-11-18 16:05:00,60.4,46.0,30.07,SSW,207,0.0,-999.0,59,-99.99,,,0.00,weatherlink.com 1.10,2013-11-19 00:05:00,
2013-11-18 16:20:00,59.9,46.0,30.07,SSW,207,0.0,-999.0,61,-99.99,,,0.00,weatherlink.com 1.10,2013-11-19 00:20:00,
2013-11-18 16:35:00,59.4,46.0,30.07,SSW,207,0.0,-999.0,62,-99.99,,,0.00,weatherlink.com 1.10,2013-11-19 00:35:00,
2013-11-18 16:50:00,58.9,46.0,30.07,SSW,207,0.0,-999.0,63,-99.99,,,0.00,weatherlink.com 1.10,2013-11-19 00:50:00,
2013-11-18 17:05:00,58.4,46.0,30.07,SSW,207,0.0,-999.0,64,-99.99,,,0.00,weatherlink.com 1.10,2013-11-19 01:05:00,
2013-11-18 17:20:00,57.8,46.0,30.07,SSW,207,0.0,-999.0,66,-99.99,,,0.00,weatherlink.com 1.10,2013-11-19 01:20:00,
2013-11-18 17:35:00,57.3,46.0,30.08,SSW,207,0.0,-999.0,66,-99.99,,,0.00,weatherlink.com 1.10,2013-11-19 01:35:00,
2013-11-18 17:50:00,57.0,46.0,30.08,SSW,207,0.0,-999.0,67,-99.99,,,0.00,weatherlink.com 1.10,2013-11-19 01:50:00,
2013-11-18 18:05:00,56.7,46.0,30.07,SSW,207,2.0,-999.0,68,-99.99,,,0.00,weatherlink.com 1.10,2013-11-19 02:05:00,
2013-11-18 18:20:00,56.5,46.0,30.08,SSW,207,0.0,-999.0,68,-99.99,,,0.00,weatherlink.com 1.10,2013-11-19 02:20:00,
2013-11-18 18:35:00,56.3,45.0,30.08,SSW,205,0.0,-999.0,67,-99.99,,,0.00,weatherlink.com 1.10,2013-11-19 02:35:00,
2013-11-18 18:50:00,56.0,45.0,30.08,SSW,205,3.0,-999.0,67,-99.99,,,0.00,weatherlink.com 1.10,2013-11-19 02:50:00,
2013-11-18 19:05:00,55.6,45.0,30.08,SSW,202,3.0,-999.0,67,-99.99,,,0.00,weatherlink.com 1.10,2013-11-19 03:05:00,
2013-11-18 19:20:00,55.1,45.0,30.08,SSW,202,0.0,-999.0,68,-99.99,,,0.00,weatherlink.com 1.10,2013-11-19 03:20:00,
2013-11-18 19:35:00,54.7,45.0,30.09,SSW,200,0.0,-999.0,69,-99.99,,,0.00,weatherlink.com 1.10,2013-11-19 03:35:00,
2013-11-18 19:50:00,54.4,45.0,30.09,SSW,200,0.0,-999.0,71,-99.99,,,0.00,weatherlink.com 1.10,2013-11-19 03:50:00,
2013-11-18 20:05:00,54.1,45.0,30.09,SSW,200,0.0,-999.0,72,-99.99,,,0.00,weatherlink.com 1.10,2013-11-19 04:05:00,
2013-11-18 20:20:00,53.9,45.0,30.09,SSW,200,0.0,-999.0,73,-99.99,,,0.00,weatherlink.com 1.10,2013-11-19 04:20:00,
2013-11-18 20:35:00,53.7,46.0,30.09,SSW,200,0.0,-999.0,74,-99.99,,,0.00,weatherlink.com 1.10,2013-11-19 04:35:00,
2013-11-18 20:50:00,53.6,46.0,30.09,SSW,200,0.0,-999.0,74,-99.99,,,0.00,weatherlink.com 1.10,2013-11-19 04:50:00,
2013-11-18 21:05:00,53.5,46.0,30.10,SSW,200,0.0,-999.0,75,-99.99,,,0.00,weatherlink.com 1.10,2013-11-19 05:05:00,
2013-11-18 21:20:00,53.3,46.0,30.09,SSW,198,0.0,-999.0,75,-99.99,,,0.00,weatherlink.com 1.10,2013-11-19 05:20:00,
2013-11-18 21:35:00,53.2,45.0,30.10,SSW,197,0.0,-999.0,75,-99.99,,,0.00,weatherlink.com 1.10,2013-11-19 05:35:00,
2013-11-18 21:50:00,53.2,46.0,30.10,SSW,194,0.0,-999.0,76,-99.99,,,0.00,weatherlink.com 1.10,2013-11-19 05:50:00,
2013-11-18 22:05:00,53.1,46.0,30.10,SSW,194,1.0,-999.0,76,-99.99,,,0.00,weatherlink.com 1.10,2013-11-19 06:05:00,
2013-11-18 22:20:00,53.0,46.0,30.09,SSW,193,2.0,-999.0,77,-99.99,,,0.00,weatherlink.com 1.10,2013-11-19 06:20:00,
2013-11-18 22:35:00,53.0,46.0,30.09,South,191,0.0,-999.0,77,-99.99,,,0.00,weatherlink.com 1.10,2013-11-19 06:35:00,
2013-11-18 22:50:00,52.8,46.0,30.08,South,191,1.0,-999.0,77,-99.99,,,0.00,weatherlink.com 1.10,2013-11-19 06:50:00,
2013-11-18 23:05:00,52.7,46.0,30.09,South,188,0.0,-999.0,78,-99.99,,,0.00,weatherlink.com 1.10,2013-11-19 07:05:00,
2013-11-18 23:20:00,52.6,46.0,30.09,South,188,0.0,-999.0,78,-99.99,,,0.00,weatherlink.com 1.10,2013-11-19 07:20:00,
2013-11-18 23:35:00,52.6,46.0,30.09,South,188,0.0,-999.0,78,-99.99,,,0.00,weatherlink.com 1.10,2013-11-19 07:35:00,
2013-11-18 23:50:00,52.6,46.0,30.09,South,188,0.0,-999.0,78,-99.99,,,0.00,weatherlink.com 1.10,2013-11-19 07:50:00,